createdAt,value
2022-10-18T00:01:13.266Z,8.50
2022-10-18T00:04:17.894Z,7.38
2022-10-18T00:07:22.281Z,6.13
2022-10-18T00:10:27.446Z,6.32
2022-10-18T00:13:33.014Z,6.85
2022-10-18T00:16:37.802Z,7.53
2022-10-18T00:19:42.052Z,6.82
2022-10-18T00:22:46.458Z,9.25
2022-10-18T00:26:08.438Z,8.80
2022-10-18T00:29:15.524Z,8.27
2022-10-18T00:32:20.181Z,8.43
2022-10-18T00:35:25.099Z,7.00
2022-10-18T00:38:29.725Z,7.38
2022-10-18T00:41:37.921Z,8.25
2022-10-18T00:44:42.117Z,7.05
2022-10-18T00:47:55.115Z,9.32
2022-10-18T00:50:59.788Z,8.95
2022-10-18T00:54:04.724Z,10.45
2022-10-18T00:57:13.753Z,7.78
2022-10-18T01:00:18.897Z,6.45
2022-10-18T01:03:23.470Z,7.20
2022-10-18T01:06:29.738Z,6.93
2022-10-18T01:10:00.632Z,7.97
2022-10-18T01:13:26.091Z,9.85
2022-10-18T01:16:38.476Z,7.05
2022-10-18T01:20:41.743Z,8.63
2022-10-18T01:24:18.144Z,6.70
2022-10-18T01:27:44.499Z,6.97
2022-10-18T01:30:59.453Z,7.53
2022-10-18T01:34:08.124Z,6.95
2022-10-18T01:37:17.323Z,7.05
2022-10-18T01:40:24.411Z,7.00
2022-10-18T01:43:31.722Z,5.72
2022-10-18T01:46:37.536Z,8.65
2022-10-18T01:49:42.559Z,8.18
2022-10-18T01:52:51.862Z,6.75
2022-10-18T01:56:47.655Z,8.07
2022-10-18T01:59:58.683Z,9.32
2022-10-18T02:03:16.560Z,6.93
2022-10-18T02:06:29.539Z,6.75
2022-10-18T02:09:52.764Z,7.72
2022-10-18T02:12:59.196Z,8.63
2022-10-18T02:16:13.328Z,6.80
2022-10-18T02:22:37.013Z,6.75
2022-10-18T02:25:41.591Z,7.47
2022-10-18T02:28:46.401Z,8.23
2022-10-18T02:31:59.626Z,9.18
2022-10-18T02:35:19.074Z,9.10
2022-10-18T02:38:27.278Z,9.25
2022-10-18T02:41:33.210Z,8.63
2022-10-18T02:44:38.557Z,8.18
2022-10-18T02:47:43.473Z,8.20
2022-10-18T02:50:47.898Z,8.52
2022-10-18T02:53:52.263Z,8.18
2022-10-18T02:56:56.453Z,9.63
2022-10-18T03:00:01.210Z,8.52
2022-10-18T03:03:05.617Z,6.95
2022-10-18T03:06:09.926Z,7.65
2022-10-18T03:09:14.360Z,7.90
2022-10-18T03:12:18.559Z,6.95
2022-10-18T03:15:23.220Z,7.88
2022-10-18T03:18:27.634Z,6.45
2022-10-18T03:21:31.953Z,9.25
2022-10-18T03:24:36.365Z,6.45
2022-10-18T03:27:40.609Z,9.57
2022-10-18T03:30:45.184Z,6.80
2022-10-18T03:33:49.832Z,6.03
2022-10-18T03:36:55.014Z,6.30
2022-10-18T03:39:59.707Z,6.22
2022-10-18T03:43:04.235Z,6.13
2022-10-18T03:46:08.590Z,6.88
2022-10-18T03:49:13.267Z,6.57
2022-10-18T03:52:17.666Z,5.85
2022-10-18T03:55:22.662Z,6.30
2022-10-18T03:58:27.017Z,5.30
2022-10-18T04:01:31.788Z,5.70
2022-10-18T04:04:35.965Z,6.03
2022-10-18T04:07:40.905Z,5.60
2022-10-18T04:10:46.214Z,6.25
2022-10-18T04:13:50.503Z,6.05
2022-10-18T04:16:54.716Z,6.38
2022-10-18T04:19:59.168Z,6.07
2022-10-18T04:23:03.458Z,8.70
2022-10-18T04:26:08.215Z,6.43
2022-10-18T04:29:12.567Z,6.63
2022-10-18T04:32:16.851Z,6.78
2022-10-18T04:35:24.428Z,6.88
2022-10-18T04:38:28.913Z,6.97
2022-10-18T04:41:33.562Z,6.07
2022-10-18T04:44:38.095Z,6.72
2022-10-18T04:47:42.634Z,5.93
2022-10-18T04:50:51.266Z,5.35
2022-10-18T04:53:55.912Z,6.05
2022-10-18T04:57:00.322Z,7.50
2022-10-18T05:00:06.273Z,6.68
2022-10-18T05:03:13.894Z,6.15
2022-10-18T05:06:18.487Z,6.18
2022-10-18T05:09:24.743Z,5.70
2022-10-18T05:12:29.866Z,5.43
2022-10-18T05:15:34.270Z,6.93
2022-10-18T05:18:38.401Z,5.50
2022-10-18T05:21:42.703Z,5.80
2022-10-18T05:24:47.092Z,4.90
2022-10-18T05:27:51.521Z,7.38
2022-10-18T05:31:00.114Z,8.52
2022-10-18T05:34:04.700Z,5.38
2022-10-18T05:37:09.240Z,6.88
2022-10-18T05:40:13.586Z,8.20
2022-10-18T05:43:18.179Z,6.22
2022-10-18T05:46:22.782Z,5.65
2022-10-18T05:49:27.322Z,5.07
2022-10-18T05:52:31.698Z,5.40
2022-10-18T05:55:36.665Z,5.15
2022-10-18T05:58:42.674Z,5.57
2022-10-18T06:01:47.480Z,5.50
2022-10-18T06:04:51.990Z,6.45
2022-10-18T06:07:57.126Z,6.75
2022-10-18T06:11:14.125Z,6.32
2022-10-18T06:14:18.630Z,4.70
2022-10-18T06:17:23.156Z,7.07
2022-10-18T06:20:27.612Z,6.25
2022-10-18T06:23:33.088Z,4.22
2022-10-18T06:26:37.574Z,6.63
2022-10-18T06:29:42.051Z,3.15
2022-10-18T06:32:46.495Z,3.83
2022-10-18T06:36:06.121Z,4.63
2022-10-18T06:39:10.927Z,4.15
2022-10-18T06:42:17.973Z,3.10
2022-10-18T06:45:25.286Z,2.53
2022-10-18T06:48:30.793Z,3.83
2022-10-18T06:51:35.349Z,2.55
2022-10-18T06:54:40.129Z,3.95
2022-10-18T06:57:44.682Z,2.97
2022-10-18T07:00:49.212Z,3.92
2022-10-18T07:03:54.597Z,4.65
2022-10-18T07:06:59.261Z,2.95
2022-10-18T07:10:04.964Z,2.63
2022-10-18T07:16:34.600Z,4.57
2022-10-18T07:19:39.308Z,2.80
2022-10-18T07:22:43.810Z,3.08
2022-10-18T07:25:48.048Z,4.85
2022-10-18T07:28:57.941Z,3.22
2022-10-18T07:32:02.508Z,3.80
2022-10-18T07:35:07.541Z,3.25
2022-10-18T07:38:11.862Z,3.75
2022-10-18T07:41:16.574Z,2.63
2022-10-18T07:44:21.183Z,3.50
2022-10-18T07:47:25.503Z,3.58
2022-10-18T07:50:30.328Z,3.08
2022-10-18T07:53:35.861Z,2.90
2022-10-18T07:56:40.341Z,2.28
2022-10-18T07:59:47.990Z,3.08
2022-10-18T08:02:59.898Z,3.70
2022-10-18T08:06:08.934Z,2.22
2022-10-18T08:09:13.674Z,2.60
2022-10-18T08:12:18.349Z,2.55
2022-10-18T08:15:25.755Z,2.00
2022-10-18T08:18:30.553Z,2.78
2022-10-18T08:21:34.891Z,1.90
2022-10-18T08:24:39.110Z,1.55
2022-10-18T08:27:43.352Z,3.40
2022-10-18T08:30:47.840Z,2.03
2022-10-18T08:33:56.055Z,2.45
2022-10-18T08:37:01.054Z,2.00
2022-10-18T08:40:06.732Z,2.67
2022-10-18T08:43:26.841Z,2.47
2022-10-18T08:46:34.466Z,2.08
2022-10-18T08:49:52.759Z,2.95
2022-10-18T08:53:26.617Z,2.45
2022-10-18T08:56:32.778Z,2.45
2022-10-18T08:59:40.607Z,2.28
2022-10-18T09:03:23.801Z,3.40
2022-10-18T09:07:01.666Z,2.42
2022-10-18T09:10:53.645Z,2.08
2022-10-18T09:14:15.341Z,1.88
2022-10-18T09:17:43.911Z,2.72
2022-10-18T09:21:00.889Z,2.58
2022-10-18T09:24:15.148Z,2.45
2022-10-18T09:27:24.331Z,1.35
2022-10-18T09:31:00.429Z,1.40
2022-10-18T09:34:22.995Z,2.22
2022-10-18T09:37:32.391Z,2.33
2022-10-18T09:41:02.279Z,2.63
2022-10-18T09:44:33.603Z,1.88
2022-10-18T09:47:46.342Z,2.10
2022-10-18T09:51:17.809Z,1.20
2022-10-18T09:54:42.072Z,1.48
2022-10-18T09:57:56.339Z,1.70
2022-10-18T10:01:01.276Z,3.00
2022-10-18T10:04:05.777Z,3.78
2022-10-18T10:07:24.776Z,1.60
2022-10-18T10:10:31.193Z,2.15
2022-10-18T10:13:35.926Z,1.33
2022-10-18T10:17:07.005Z,2.42
2022-10-18T10:20:20.553Z,1.90
2022-10-18T10:23:26.241Z,1.42
2022-10-18T10:26:34.915Z,2.13
2022-10-18T10:29:53.635Z,1.55
2022-10-18T10:32:58.437Z,3.03
2022-10-18T10:36:15.619Z,2.03
2022-10-18T10:39:23.557Z,1.70
2022-10-18T10:42:37.712Z,0.75
2022-10-18T10:46:00.734Z,1.75
2022-10-18T10:49:34.832Z,1.70
2022-10-18T10:52:29.871Z,1.90
2022-10-18T10:55:35.929Z,0.80
2022-10-18T10:58:41.305Z,1.33
2022-10-18T11:01:49.707Z,1.98
2022-10-18T11:04:56.970Z,1.20
2022-10-18T11:08:04.966Z,2.08
2022-10-18T11:11:27.789Z,1.85
2022-10-18T11:14:41.059Z,0.57
2022-10-18T11:18:01.399Z,1.42
2022-10-18T11:21:11.519Z,1.90
2022-10-18T11:24:17.015Z,1.88
2022-10-18T11:28:04.506Z,2.72
2022-10-18T11:31:37.668Z,1.50
2022-10-18T11:35:00.525Z,1.35
2022-10-18T11:38:41.163Z,4.15
2022-10-18T11:42:35.676Z,1.77
2022-10-18T11:46:02.370Z,1.13
2022-10-18T11:49:34.249Z,1.55
2022-10-18T11:53:11.796Z,2.05
2022-10-18T11:56:36.475Z,1.67
2022-10-18T12:00:09.528Z,1.38
2022-10-18T12:04:13.039Z,2.78
2022-10-18T12:07:26.818Z,1.15
2022-10-18T12:10:44.382Z,0.85
2022-10-18T12:14:38.808Z,0.88
2022-10-18T12:17:50.216Z,1.65
2022-10-18T12:20:59.362Z,2.08
2022-10-18T12:24:12.537Z,1.08
2022-10-18T12:27:17.483Z,1.77
2022-10-18T12:30:46.208Z,4.38
2022-10-18T12:34:18.138Z,3.25
2022-10-18T12:37:57.649Z,2.40
2022-10-18T12:41:03.347Z,2.15
2022-10-18T12:44:20.590Z,2.28
2022-10-18T12:47:26.339Z,1.73
2022-10-18T12:50:38.995Z,2.50
2022-10-18T12:53:47.521Z,0.67
2022-10-18T12:56:52.306Z,2.00
2022-10-18T12:59:57.261Z,2.58
2022-10-18T13:03:14.284Z,1.48
2022-10-18T13:06:19.169Z,0.90
2022-10-18T13:09:30.709Z,1.23
2022-10-18T13:13:38.324Z,0.55
2022-10-18T13:17:09.402Z,1.20
2022-10-18T13:20:37.606Z,0.88
2022-10-18T13:24:26.919Z,0.38
2022-10-18T13:27:43.152Z,2.53
2022-10-18T13:31:42.351Z,0.98
2022-10-18T13:34:46.763Z,1.20
2022-10-18T13:37:59.886Z,1.77
2022-10-18T13:41:15.301Z,0.80
2022-10-18T13:44:43.560Z,1.38
2022-10-18T13:47:48.258Z,1.45
2022-10-18T13:50:55.936Z,2.83
2022-10-18T13:54:15.698Z,0.70
2022-10-18T13:57:23.018Z,3.50
2022-10-18T14:01:14.261Z,1.33
2022-10-18T14:04:48.398Z,1.10
2022-10-18T14:08:13.749Z,0.70
2022-10-18T14:11:33.648Z,0.50
2022-10-18T14:14:46.229Z,1.20
2022-10-18T14:18:05.092Z,1.77
2022-10-18T14:21:22.060Z,1.48
2022-10-18T14:24:28.989Z,1.38
2022-10-18T14:27:33.679Z,0.95
2022-10-18T14:31:02.362Z,1.50
2022-10-18T14:34:15.240Z,0.90
2022-10-18T14:37:34.576Z,1.02
2022-10-18T14:40:41.054Z,2.15
2022-10-18T14:43:46.595Z,1.02
2022-10-18T14:47:12.108Z,0.88
2022-10-18T14:50:30.500Z,3.35
2022-10-18T14:53:39.860Z,2.35
2022-10-18T14:56:45.404Z,1.30
2022-10-18T14:59:55.612Z,2.05
2022-10-18T15:03:02.937Z,0.82
2022-10-18T15:06:08.490Z,0.85
2022-10-18T15:09:14.539Z,1.05
2022-10-18T15:12:19.535Z,0.60
2022-10-18T15:15:29.200Z,0.88
2022-10-18T15:18:33.589Z,2.38
2022-10-18T15:21:38.029Z,0.68
2022-10-18T15:24:42.473Z,1.20
2022-10-18T15:27:51.368Z,0.50
2022-10-18T15:31:01.800Z,0.77
2022-10-18T15:34:21.786Z,0.60
2022-10-18T15:37:41.714Z,0.55
2022-10-18T15:40:46.367Z,1.38
2022-10-18T15:43:51.001Z,0.55
2022-10-18T15:47:12.250Z,1.45
2022-10-18T15:50:43.646Z,1.20
2022-10-18T15:53:54.522Z,1.08
2022-10-18T15:56:59.042Z,1.40
2022-10-18T16:00:16.267Z,1.27
2022-10-18T16:03:24.576Z,1.95
2022-10-18T16:06:29.258Z,1.30
2022-10-18T16:09:35.748Z,2.38
2022-10-18T16:12:40.844Z,0.80
2022-10-18T16:15:45.303Z,1.65
2022-10-18T16:18:52.613Z,1.38
2022-10-18T16:21:57.022Z,2.35
2022-10-18T16:25:02.440Z,0.50
2022-10-18T16:28:21.803Z,2.40
2022-10-18T16:31:30.268Z,1.10
2022-10-18T16:34:34.927Z,1.30
2022-10-18T16:37:40.255Z,1.15
2022-10-18T16:40:44.733Z,0.98
2022-10-18T16:43:50.863Z,1.67
2022-10-18T16:46:57.430Z,1.13
2022-10-18T16:50:08.066Z,2.47
2022-10-18T16:53:14.615Z,1.35
2022-10-18T16:56:32.166Z,1.35
2022-10-18T16:59:36.962Z,0.57
2022-10-18T17:02:41.238Z,1.42
2022-10-18T17:05:46.140Z,3.00
2022-10-18T17:08:52.276Z,1.13
2022-10-18T17:11:56.549Z,2.58
2022-10-18T17:15:00.845Z,2.72
2022-10-18T17:18:05.961Z,1.17
2022-10-18T17:21:10.686Z,0.63
2022-10-18T17:24:15.188Z,0.63
2022-10-18T17:27:19.635Z,2.15
2022-10-18T17:30:24.487Z,2.65
2022-10-18T17:33:29.413Z,0.77
2022-10-18T17:36:34.466Z,0.98
2022-10-18T17:39:38.761Z,1.40
2022-10-18T17:42:43.624Z,3.38
2022-10-18T17:45:56.153Z,1.73
2022-10-18T17:49:02.170Z,2.90
2022-10-18T17:52:07.175Z,1.15
2022-10-18T17:55:13.934Z,3.47
2022-10-18T17:58:18.465Z,1.05
2022-10-18T18:01:23.455Z,1.35
2022-10-18T18:04:28.016Z,2.20
2022-10-18T18:07:32.856Z,2.10
2022-10-18T18:10:37.799Z,1.30
2022-10-18T18:13:42.771Z,2.38
2022-10-18T18:16:47.933Z,2.45
2022-10-18T18:19:52.343Z,1.48
2022-10-18T18:22:56.830Z,3.05
2022-10-18T18:26:01.293Z,1.02
2022-10-18T18:29:06.340Z,3.22
2022-10-18T18:32:10.825Z,1.10
2022-10-18T18:35:15.232Z,2.33
2022-10-18T18:38:19.393Z,2.10
2022-10-18T18:41:25.940Z,2.35
2022-10-18T18:44:31.048Z,2.20
2022-10-18T18:47:35.690Z,1.05
2022-10-18T18:50:40.411Z,2.28
2022-10-18T18:53:47.020Z,1.60
2022-10-18T18:56:51.471Z,1.75
2022-10-18T18:59:55.742Z,1.60
2022-10-18T19:03:00.616Z,2.58
2022-10-18T19:06:08.705Z,2.15
2022-10-18T19:09:22.146Z,2.72
2022-10-18T19:12:26.860Z,2.28
2022-10-18T19:15:31.529Z,2.90
2022-10-18T19:18:36.132Z,2.45
2022-10-18T19:21:44.791Z,4.13
2022-10-18T19:24:49.079Z,2.53
2022-10-18T19:27:53.911Z,2.45
2022-10-18T19:30:59.049Z,2.10
2022-10-18T19:34:06.595Z,4.13
2022-10-18T19:37:12.889Z,1.35
2022-10-18T19:40:17.679Z,2.60
2022-10-18T19:43:22.493Z,0.85
2022-10-18T19:46:27.819Z,1.58
2022-10-18T19:49:32.475Z,2.50
2022-10-18T19:52:36.864Z,3.70
2022-10-18T19:55:41.577Z,2.80
2022-10-18T19:58:46.926Z,1.65
2022-10-18T20:01:52.139Z,1.35
2022-10-18T20:04:56.669Z,1.05
2022-10-18T20:08:01.429Z,4.07
2022-10-18T20:11:12.837Z,1.70
2022-10-18T20:14:17.746Z,1.95
2022-10-18T20:17:22.072Z,1.95
2022-10-18T20:20:26.444Z,2.13
2022-10-18T20:23:32.490Z,1.80
2022-10-18T20:26:37.615Z,1.40
2022-10-18T20:29:42.181Z,3.88
2022-10-18T20:32:46.579Z,3.72
2022-10-18T20:35:52.330Z,1.35
2022-10-18T20:38:57.689Z,3.00
2022-10-18T20:42:02.762Z,1.30
2022-10-18T20:45:08.727Z,2.42
2022-10-18T20:48:13.302Z,3.42
2022-10-18T20:51:19.106Z,2.13
2022-10-18T20:54:23.457Z,1.52
2022-10-18T20:57:34.153Z,1.58
2022-10-18T21:00:40.894Z,1.38
2022-10-18T21:03:46.898Z,2.10
2022-10-18T21:06:51.270Z,1.45
2022-10-18T21:09:55.575Z,2.55
2022-10-18T21:12:59.716Z,1.05
2022-10-18T21:16:06.584Z,1.27
2022-10-18T21:19:17.162Z,2.58
2022-10-18T21:22:21.564Z,1.02
2022-10-18T21:25:26.602Z,1.48
2022-10-18T21:28:31.081Z,1.15
2022-10-18T21:31:39.234Z,1.70
2022-10-18T21:34:43.940Z,2.10
2022-10-18T21:37:48.990Z,1.90
2022-10-18T21:40:53.424Z,2.42
2022-10-18T21:43:57.983Z,1.23
2022-10-18T21:47:02.375Z,2.55
2022-10-18T21:50:07.410Z,2.83
2022-10-18T21:53:13.644Z,1.13
2022-10-18T21:56:24.055Z,2.90
2022-10-18T21:59:28.969Z,2.10
2022-10-18T22:02:34.350Z,1.35
2022-10-18T22:05:39.968Z,1.38
2022-10-18T22:08:56.739Z,2.72
2022-10-18T22:12:01.163Z,2.05
2022-10-18T22:15:06.485Z,1.75
2022-10-18T22:18:11.155Z,1.35
2022-10-18T22:21:19.818Z,2.30
2022-10-18T22:24:24.361Z,1.58
2022-10-18T22:27:32.968Z,1.35
2022-10-18T22:30:38.666Z,2.25
2022-10-18T22:33:43.383Z,1.77
2022-10-18T22:36:48.132Z,4.00
2022-10-18T22:39:53.058Z,2.38
2022-10-18T22:42:57.501Z,2.55
2022-10-18T22:46:08.259Z,2.35
2022-10-18T22:49:12.917Z,3.80
2022-10-18T22:52:17.380Z,2.20
2022-10-18T22:55:22.207Z,2.55
2022-10-18T22:58:26.876Z,2.72
2022-10-18T23:01:31.239Z,2.22
2022-10-18T23:04:35.838Z,2.10
2022-10-18T23:07:40.185Z,1.20
2022-10-18T23:10:44.656Z,2.30
2022-10-18T23:13:49.067Z,2.67
2022-10-18T23:16:53.306Z,3.03
2022-10-18T23:19:57.781Z,2.85
2022-10-18T23:23:01.997Z,2.78
2022-10-18T23:26:10.867Z,2.15
2022-10-18T23:29:15.176Z,2.15
2022-10-18T23:32:19.670Z,2.78
2022-10-18T23:35:24.003Z,2.67
2022-10-18T23:38:30.720Z,1.33
2022-10-18T23:41:35.365Z,1.33
2022-10-18T23:44:40.179Z,2.78
2022-10-18T23:47:44.605Z,1.95
2022-10-18T23:50:49.152Z,0.90
2022-10-18T23:53:53.549Z,2.45
2022-10-18T23:56:59.224Z,3.95
